Impacts TAF Board
For situational awareness. Not to be used for flight planning purposes.
IDs:

KBOS - Boston/Logan Intl, MA, US

Issued at 1510 UTC 20 Jan 2019
Updated at 1644 UTC 20 Jan 2019
Potential Impact None Slight Moderate High
Time1554Z 20/17Z 20/18Z 20/19Z 20/20Z 20/21Z 20/22Z 20/23Z 21/00Z 21/01Z 21/02Z 21/03Z 21/04Z 21/05Z>>
Type OBS PRVL PRVL PRVL PRVL PRVL PRVL PRVL PRVL PRVL PRVL PRVL PRVL PRVL
VIS 2 2 2 2 2 2 2 2 3 3 3 3 3 3
CIG 9 6 6 6 3 3 3 3 8 8 8 8 8 8
Cover OVC OVC OVC OVC OVC OVC OVC OVC OVC OVC OVC OVC OVC OVC
FltCat IFR IFR IFR IFR LIFR LIFR LIFR LIFR IFR IFR IFR IFR IFR IFR
WX -SN -PL BR FZRA PL BR FZRA PL BR FZRA PL BR -PL -PL -PL -PL -PL -SN -PL -SN -PL -SN -PL -SN -PL -SN -PL -SN
WDir 340 340 340 340 340 340 340 340 320 320 320 320 320 320
WSpd 10 13 13 13 12 12 12 12 14 14 14 14 14 14
WGst -- -- -- -- 20 20 20 20 30 30 30 30 30 30
Raw TAF
KBOS 201510Z 2015/2118 34013KT 2SM FZRAPL BR OVC006
  FM202000 34012G20KT 2SM -PL OVC003
  FM210000 32014G30KT 3SM -PLSN OVC008
  FM210600 30017G32KT P6SM SCT025
  FM211400 30014G29KT P6SM BKN040


Raw METAR
KBOS 201554Z 34010KT 2SM -SNPL BR OVC009 M05/M07 A2944 RMK AO2 TWR VIS 3 SLP968 P0005 T10501072 $
KBOS 201537Z 01014KT 1 3/4SM R04R/5500VP6000FT -SNPL BR OVC009 M04/M07 A2944 RMK AO2 TWR VIS 3 PRESFR P0004 T10441067 $
KBOS 201454Z 33009KT 2SM -SNPL BR OVC009 M03/M04 A2950 RMK AO2 TWR VIS 3 SLP988 SNB1355FZRAE1355PLE1356B14 P0010 60039 T10281044 56048 $
KBOS 201431Z 32011KT 1 3/4SM R04R/5500VP6000FT -SNPL BR OVC009 M02/M04 A2951 RMK AO2 TWR VIS 3 SNB1355FZRAE1355PLE1356B14 P0005 T10221039 $
KBOS 201421Z 35012KT 2SM -SNPL BR OVC009 M02/M04 A2951 RMK AO2 TWR VIS 3 SNB1355FZRAE1355PLE1356B14 P0002 T10221039 $
KBOS 201409Z 35011KT 2SM -SN BR OVC007 M02/M03 A2952 RMK AO2 TWR VIS 3 SNB55FZRAE55PLE56 P0001 T10171033 $
KBOS 201356Z COR 35013KT 3SM -SN BR OVC007 M01/M03 A2952 RMK AO2 SFC VIS 4 SNB55FZRAE55PLE56 P0000 T10111033 $
KBOS 201354Z 35012KT 3SM FZRAPL BR OVC007 M01/M03 A2951 RMK AO2 SFC VIS 4 RAE19FZRAB19PLB40 SLP994 P0015 T10111028 $
KBOS 201340Z 36014G21KT 3SM FZRAPL BR OVC007 M01/M02 A2950 RMK AO2 SFC VIS 4 VIS 2 1/2 E RAE19FZRAB19PLB40 P0015 T10061017 $
KBOS 201332Z 36012G20KT 2 1/2SM FZRA BR OVC007 00/M02 A2951 RMK AO2 TWR VIS 3 RAE19FZRAB19 P0013 T00001017 $

METAR Board
Radar Display
Forecast Discussion
For situational awareness. Not to be used for flight planning purposes.